Time;durP1;ratioP1;P1;durP2;ratioP2;P2;SDS_P1;SDS_P2;PMS_P1;PMS_P2;Temp;Humidity;BMP_temperature;BMP_pressure;BME280_temperature;BME280_humidity;BME280_pressure;Samples;Min_cycle;Max_cycle;Signal;HPM_P1;HPM_P2
2023/07/30 00:01:44;;;;;;;;;;;;;;;;;;5080753;27;92312;-76
2023/07/30 00:04:09;;;;;;;;;;;;;;;;;;5078451;27;92391;-77
2023/07/30 00:06:34;;;;;;;;;;;;;;;;;;5082285;27;92610;-76
2023/07/30 00:08:59;;;;;;;;;;;;;;;;;;5083312;27;92548;-76
2023/07/30 00:11:24;;;;;;;;;;;;;;;;;;5079978;27;93166;-77
2023/07/30 00:13:50;;;;;;;;;;;;;;;;;;5077977;27;92797;-77
2023/07/30 00:16:15;;;;;;;;;;;;;;;;;;5082638;27;92445;-77
2023/07/30 00:18:40;;;;;;;;;;;;;;;;;;5085727;27;94356;-76
2023/07/30 00:21:05;;;;;;;;;;;;;;;;;;5081056;27;93888;-76
2023/07/30 00:23:30;;;;;;;;;;;;;;;;;;5076487;27;93096;-77
2023/07/30 00:25:56;;;;;;;;;;;;;;;;;;5082525;27;93939;-75
2023/07/30 00:28:21;;;;;;;;;;;;;;;;;;5079351;27;93187;-76
2023/07/30 00:30:46;;;;;;;;;;;;;;;;;;5076686;27;93619;-76
2023/07/30 00:33:11;;;;;;;;;;;;;;;;;;5083028;27;94377;-76
2023/07/30 00:35:37;;;;;;;;;;;;;;;;;;5082855;27;93995;-76
2023/07/30 00:38:02;;;;;;;;;;;;;;;;;;5077679;27;92247;-76
2023/07/30 00:40:27;;;;;;;;;;;;;;;;;;5085307;27;92720;-75
2023/07/30 00:42:52;;;;;;;;;;;;;;;;;;5081796;27;92731;-75
2023/07/30 00:45:17;;;;;;;;;;;;;;;;;;5079856;27;92805;-76
2023/07/30 00:47:43;;;;;;;;;;;;;;;;;;5073367;27;92754;-76
2023/07/30 00:50:09;;;;;;;;;;;;;;;;;;5078431;27;92605;-76
2023/07/30 00:52:34;;;;;;;;;;;;;;;;;;5076981;27;91931;-76
2023/07/30 00:55:02;;;;;;;;;;;;;;;;;;5079275;27;92289;-75
2023/07/30 00:57:28;;;;;;;;;;;;;;;;;;5077930;27;93366;-75
2023/07/30 00:59:53;;;;;;;;;;;;;;;;;;5080451;27;93652;-76
2023/07/30 01:02:19;;;;;;;;;;;;;;;;;;5084069;27;92418;-76
2023/07/30 01:04:44;;;;;;;;;;;;;;;;;;5083616;27;92848;-76
2023/07/30 01:07:09;;;;;;;;;;;;;;;;;;5082837;27;93847;-75
2023/07/30 01:09:35;;;;;;;;;;;;;;;;;;5079453;27;93808;-76
2023/07/30 01:12:01;;;;;;;;;;;;;;;;;;5081949;27;92586;-76
2023/07/30 01:14:27;;;;;;;;;;;;;;;;;;5079522;27;92747;-75
2023/07/30 01:16:52;;;;;;;;;;;;;;;;;;5078143;27;92198;-75
2023/07/30 01:19:18;;;;;;;;;;;;;;;;;;5079366;27;92794;-76
2023/07/30 01:21:43;;;;;;;;;;;;;;;;;;5081781;27;93355;-76
2023/07/30 01:24:09;;;;;;;;;;;;;;;;;;5086129;27;94120;-76
2023/07/30 01:26:40;;;;;;;;;;;;;;;;;;5078231;27;93394;-77
2023/07/30 01:29:09;;;;;;;;;;;;;;;;;;5078830;27;92641;-76
2023/07/30 01:31:34;;;;;;;;;;;;;;;;;;5080531;27;93667;-76
2023/07/30 01:34:01;;;;;;;;;;;;;;;;;;5074204;27;92747;-76
2023/07/30 01:36:28;;;;;;;;;;;;;;;;;;5080523;27;92801;-76
2023/07/30 01:38:54;;;;;;;;;;;;;;;;;;5075987;27;93702;-76
2023/07/30 01:41:19;;;;;;;;;;;;;;;;;;5073997;27;92591;-76
2023/07/30 01:43:44;;;;;;;;;;;;;;;;;;5082318;27;92237;-75
2023/07/30 01:46:10;;;;;;;;;;;;;;;;;;5082641;27;92804;-75
2023/07/30 01:48:35;;;;;;;;;;;;;;;;;;5074711;27;93951;-76
2023/07/30 01:51:00;;;;;;;;;;;;;;;;;;5080587;27;92615;-76
2023/07/30 01:53:25;;;;;;;;;;;;;;;;;;5078416;27;93279;-76
2023/07/30 01:55:51;;;;;;;;;;;;;;;;;;5082378;27;93620;-76
2023/07/30 01:58:16;;;;;;;;;;;;;;;;;;5079849;27;93782;-76
2023/07/30 02:00:44;;;;;;;;;;;;;;;;;;5073089;27;93070;-76
2023/07/30 02:03:09;;;;;;;;;;;;;;;;;;5081171;27;92768;-76
2023/07/30 02:05:34;;;;;;;;;;;;;;;;;;5081912;27;92111;-76
2023/07/30 02:07:59;;;;;;;;;;;;;;;;;;5082636;27;92339;-76
2023/07/30 02:10:25;;;;;;;;;;;;;;;;;;5078308;27;92663;-76
2023/07/30 02:12:50;;;;;;;;;;;;;;;;;;5077067;27;93729;-76
2023/07/30 02:15:15;;;;;;;;;;;;;;;;;;5082650;27;96727;-76
2023/07/30 02:17:41;;;;;;;;;;;;;;;;;;5076442;27;92701;-76
2023/07/30 02:20:06;;;;;;;;;;;;;;;;;;5078210;27;92295;-77
2023/07/30 02:22:31;;;;;;;;;;;;;;;;;;5074606;27;93503;-77
2023/07/30 02:24:57;;;;;;;;;;;;;;;;;;5077295;27;92826;-76
2023/07/30 02:27:22;;;;;;;;;;;;;;;;;;5084474;27;92663;-75
2023/07/30 02:29:47;;;;;;;;;;;;;;;;;;5078255;27;91906;-75
2023/07/30 02:32:13;;;;;;;;;;;;;;;;;;5075445;27;92646;-75
2023/07/30 02:34:38;;;;;;;;;;;;;;;;;;5077417;27;92682;-75
2023/07/30 02:37:03;;;;;;;;;;;;;;;;;;5078554;27;93931;-76
2023/07/30 02:39:28;;;;;;;;;;;;;;;;;;5076704;27;92812;-76
2023/07/30 02:41:53;;;;;;;;;;;;;;;;;;5079966;27;93099;-75
2023/07/30 02:44:19;;;;;;;;;;;;;;;;;;5077595;27;92834;-75
2023/07/30 02:46:44;;;;;;;;;;;;;;;;;;5076702;27;93992;-76
2023/07/30 02:49:09;;;;;;;;;;;;;;;;;;5076161;27;95266;-75
2023/07/30 02:51:34;;;;;;;;;;;;;;;;;;5074737;27;94352;-76
2023/07/30 02:54:03;;;;;;;;;;;;;;;;;;5080506;27;92411;-75
2023/07/30 02:56:28;;;;;;;;;;;;;;;;;;5077357;27;92704;-75
2023/07/30 02:58:54;;;;;;;;;;;;;;;;;;5078850;27;93982;-76
2023/07/30 03:01:19;;;;;;;;;;;;;;;;;;5075220;27;93592;-75
2023/07/30 03:03:44;;;;;;;;;;;;;;;;;;5072894;27;93011;-75
2023/07/30 03:06:09;;;;;;;;;;;;;;;;;;5078082;27;92750;-76
2023/07/30 03:08:36;;;;;;;;;;;;;;;;;;5077375;27;92564;-76
2023/07/30 03:11:01;;;;;;;;;;;;;;;;;;5078704;27;93770;-75
2023/07/30 03:13:26;;;;;;;;;;;;;;;;;;5075414;27;93714;-76
2023/07/30 03:15:51;;;;;;;;;;;;;;;;;;5073993;27;92942;-75
2023/07/30 03:18:16;;;;;;;;;;;;;;;;;;5076797;27;92864;-75
2023/07/30 03:20:42;;;;;;;;;;;;;;;;;;5072138;27;92357;-75
2023/07/30 03:23:07;;;;;;;;;;;;;;;;;;5076694;27;92667;-75
2023/07/30 03:25:32;;;;;;;;;;;;;;;;;;5077537;27;93294;-76
2023/07/30 03:27:57;;;;;;;;;;;;;;;;;;5079417;27;94223;-76
2023/07/30 03:30:22;;;;;;;;;;;;;;;;;;5075925;27;92443;-76
2023/07/30 03:32:48;;;;;;;;;;;;;;;;;;5078775;27;92708;-76
2023/07/30 03:35:13;;;;;;;;;;;;;;;;;;5075251;27;95488;-76
2023/07/30 03:37:38;;;;;;;;;;;;;;;;;;5080478;27;94282;-76
2023/07/30 03:40:04;;;;;;;;;;;;;;;;;;5075162;27;93079;-76
2023/07/30 03:42:29;;;;;;;;;;;;;;;;;;5073788;27;92448;-76
2023/07/30 03:44:54;;;;;;;;;;;;;;;;;;5072163;27;93182;-76
2023/07/30 03:47:19;;;;;;;;;;;;;;;;;;5080313;27;92680;-76
2023/07/30 03:49:44;;;;;;;;;;;;;;;;;;5074836;27;93639;-76
2023/07/30 03:52:10;;;;;;;;;;;;;;;;;;5072036;27;92322;-76
2023/07/30 03:54:35;;;;;;;;;;;;;;;;;;5080589;27;92230;-76
2023/07/30 03:57:00;;;;;;;;;;;;;;;;;;5076424;27;92679;-75
2023/07/30 03:59:25;;;;;;;;;;;;;;;;;;5075523;27;93733;-75
2023/07/30 04:01:51;;;;;;;;;;;;;;;;;;5075424;27;93014;-76
2023/07/30 04:04:16;;;;;;;;;;;;;;;;;;5075860;27;92882;-76
2023/07/30 04:06:41;;;;;;;;;;;;;;;;;;5075402;27;93306;-76
2023/07/30 04:09:07;;;;;;;;;;;;;;;;;;5075568;27;92672;-76
2023/07/30 04:11:33;;;;;;;;;;;;;;;;;;5077631;27;93136;-76
2023/07/30 04:13:58;;;;;;;;;;;;;;;;;;5079155;27;93871;-76
2023/07/30 04:16:23;;;;;;;;;;;;;;;;;;5083499;27;94130;-76
2023/07/30 04:18:48;;;;;;;;;;;;;;;;;;5078193;27;93141;-76
2023/07/30 04:21:15;;;;;;;;;;;;;;;;;;5075780;27;93660;-76
2023/07/30 04:23:40;;;;;;;;;;;;;;;;;;5070498;27;92273;-76
2023/07/30 04:26:05;;;;;;;;;;;;;;;;;;5078145;27;92637;-76
2023/07/30 04:28:30;;;;;;;;;;;;;;;;;;5077433;27;92595;-76
2023/07/30 04:30:56;;;;;;;;;;;;;;;;;;5077182;27;92365;-76
2023/07/30 04:33:21;;;;;;;;;;;;;;;;;;5076698;27;92659;-76
2023/07/30 04:35:46;;;;;;;;;;;;;;;;;;5075526;27;92735;-76
2023/07/30 04:38:11;;;;;;;;;;;;;;;;;;5074303;27;93734;-76
2023/07/30 04:40:36;;;;;;;;;;;;;;;;;;5080224;27;93155;-76
2023/07/30 04:43:02;;;;;;;;;;;;;;;;;;5073625;27;93462;-76
2023/07/30 04:45:27;;;;;;;;;;;;;;;;;;5074102;27;93543;-76
2023/07/30 04:47:52;;;;;;;;;;;;;;;;;;5072361;27;92707;-76
2023/07/30 04:50:17;;;;;;;;;;;;;;;;;;5075456;27;93807;-76
2023/07/30 04:52:43;;;;;;;;;;;;;;;;;;5077124;27;92321;-75
2023/07/30 04:55:08;;;;;;;;;;;;;;;;;;5071707;27;92582;-76
2023/07/30 04:57:33;;;;;;;;;;;;;;;;;;5080304;27;92230;-76
2023/07/30 04:59:58;;;;;;;;;;;;;;;;;;5073276;27;95208;-76
2023/07/30 05:02:23;;;;;;;;;;;;;;;;;;5075354;27;93450;-76
2023/07/30 05:04:49;;;;;;;;;;;;;;;;;;5069281;27;93048;-76
2023/07/30 05:07:14;;;;;;;;;;;;;;;;;;5078770;27;95149;-75
2023/07/30 05:09:39;;;;;;;;;;;;;;;;;;5073249;27;93394;-75
2023/07/30 05:12:05;;;;;;;;;;;;;;;;;;5072376;27;93967;-75
2023/07/30 05:14:30;;;;;;;;;;;;;;;;;;5071313;27;92722;-76
2023/07/30 05:16:55;;;;;;;;;;;;;;;;;;5079730;27;93024;-76
2023/07/30 05:19:21;;;;;;;;;;;;;;;;;;5072883;27;92388;-76
2023/07/30 05:21:46;;;;;;;;;;;;;;;;;;5077478;27;92655;-76
2023/07/30 05:24:11;;;;;;;;;;;;;;;;;;5076440;27;92681;-75
2023/07/30 05:26:36;;;;;;;;;;;;;;;;;;5071958;27;94620;-76
2023/07/30 05:29:03;;;;;;;;;;;;;;;;;;5071557;27;93479;-76
2023/07/30 05:31:28;;;;;;;;;;;;;;;;;;5077413;27;93986;-76
2023/07/30 05:33:53;;;;;;;;;;;;;;;;;;5077426;27;93397;-76
2023/07/30 05:36:18;;;;;;;;;;;;;;;;;;5066974;27;93297;-76
2023/07/30 05:38:44;;;;;;;;;;;;;;;;;;5074628;27;92992;-76
2023/07/30 05:41:09;;;;;;;;;;;;;;;;;;5080006;27;93081;-75
2023/07/30 05:43:34;;;;;;;;;;;;;;;;;;5075740;27;92320;-77
2023/07/30 05:45:59;;;;;;;;;;;;;;;;;;5078794;27;92711;-74
2023/07/30 05:48:25;;;;;;;;;;;;;;;;;;5071254;27;92368;-76
2023/07/30 05:50:50;;;;;;;;;;;;;;;;;;5069533;27;95989;-76
2023/07/30 05:53:15;;;;;;;;;;;;;;;;;;5077880;27;92787;-74
2023/07/30 05:55:41;;;;;;;;;;;;;;;;;;5076021;27;92432;-79
2023/07/30 05:58:06;;;;;;;;;;;;;;;;;;5073525;27;94367;-80
2023/07/30 06:00:31;;;;;;;;;;;;;;;;;;5076313;27;93637;-78
2023/07/30 06:02:56;;;;;;;;;;;;;;;;;;5076268;27;94419;-77
2023/07/30 06:05:22;;;;;;;;;;;;;;;;;;5078146;27;92941;-75
2023/07/30 06:07:47;;;;;;;;;;;;;;;;;;5075620;27;91521;-75
2023/07/30 06:10:12;;;;;;;;;;;;;;;;;;5079044;27;92613;-76
2023/07/30 06:12:37;;;;;;;;;;;;;;;;;;5073001;27;92819;-75
2023/07/30 06:15:03;;;;;;;;;;;;;;;;;;5075766;27;94157;-76
2023/07/30 06:17:28;;;;;;;;;;;;;;;;;;5078894;27;93311;-78
2023/07/30 06:19:53;;;;;;;;;;;;;;;;;;5074351;27;95939;-76
2023/07/30 06:22:18;;;;;;;;;;;;;;;;;;5078762;27;92623;-76
2023/07/30 06:24:44;;;;;;;;;;;;;;;;;;5079726;27;92977;-76
2023/07/30 06:27:09;;;;;;;;;;;;;;;;;;5085407;27;92696;-73
2023/07/30 06:29:35;;;;;;;;;;;;;;;;;;5076005;27;93452;-73
2023/07/30 06:32:00;;;;;;;;;;;;;;;;;;5072851;27;91546;-75
2023/07/30 06:34:25;;;;;;;;;;;;;;;;;;5076381;27;93226;-76
2023/07/30 06:36:50;;;;;;;;;;;;;;;;;;5074566;27;92465;-74
2023/07/30 06:39:15;;;;;;;;;;;;;;;;;;5078542;27;93760;-74
2023/07/30 06:41:41;;;;;;;;;;;;;;;;;;5071125;27;93605;-74
2023/07/30 06:44:06;;;;;;;;;;;;;;;;;;5079488;27;92684;-74
2023/07/30 06:46:31;;;;;;;;;;;;;;;;;;5074810;27;92529;-75
2023/07/30 06:48:56;;;;;;;;;;;;;;;;;;5076988;27;92352;-75
2023/07/30 06:51:24;;;;;;;;;;;;;;;;;;5080963;27;92679;-71
2023/07/30 06:53:49;;;;;;;;;;;;;;;;;;5072701;27;92598;-73
2023/07/30 06:56:14;;;;;;;;;;;;;;;;;;5079103;27;92419;-72
2023/07/30 06:58:39;;;;;;;;;;;;;;;;;;5076919;27;92731;-72
2023/07/30 07:01:05;;;;;;;;;;;;;;;;;;5071100;27;93202;-72
2023/07/30 07:03:30;;;;;;;;;;;;;;;;;;5076558;27;93582;-75
2023/07/30 07:05:55;;;;;;;;;;;;;;;;;;5078253;27;92708;-76
2023/07/30 07:08:21;;;;;;;;;;;;;;;;;;5080540;27;93083;-75
2023/07/30 07:10:46;;;;;;;;;;;;;;;;;;5074307;27;93678;-74
2023/07/30 07:13:14;;;;;;;;;;;;;;;;;;5074112;27;92622;-73
2023/07/30 07:15:40;;;;;;;;;;;;;;;;;;5073111;27;93595;-74
2023/07/30 07:18:05;;;;;;;;;;;;;;;;;;5079515;27;92827;-73
2023/07/30 07:20:30;;;;;;;;;;;;;;;;;;5080937;27;92119;-74
2023/07/30 07:22:55;;;;;;;;;;;;;;;;;;5078253;27;92432;-74
2023/07/30 07:25:21;;;;;;;;;;;;;;;;;;5076103;27;92704;-74
2023/07/30 07:27:46;;;;;;;;;;;;;;;;;;5078854;27;93223;-74
2023/07/30 07:30:11;;;;;;;;;;;;;;;;;;5078660;27;92741;-73
2023/07/30 07:32:38;;;;;;;;;;;;;;;;;;5073665;27;92682;-73
2023/07/30 07:35:04;;;;;;;;;;;;;;;;;;5079714;27;92799;-74
2023/07/30 07:37:31;;;;;;;;;;;;;;;;;;5078626;27;93854;-74
2023/07/30 07:39:56;;;;;;;;;;;;;;;;;;5076783;27;92301;-74
2023/07/30 07:42:21;;;;;;;;;;;;;;;;;;5075971;27;93483;-73
2023/07/30 07:44:46;;;;;;;;;;;;;;;;;;5084143;27;92062;-74
2023/07/30 07:47:12;;;;;;;;;;;;;;;;;;5078518;27;92608;-74
2023/07/30 07:49:37;;;;;;;;;;;;;;;;;;5078097;27;92918;-74
2023/07/30 07:52:02;;;;;;;;;;;;;;;;;;5075653;27;93199;-74
2023/07/30 07:54:27;;;;;;;;;;;;;;;;;;5077032;27;93005;-74
2023/07/30 07:56:53;;;;;;;;;;;;;;;;;;5072808;27;93263;-74
2023/07/30 07:59:18;;;;;;;;;;;;;;;;;;5077465;27;93482;-74
2023/07/30 08:01:43;;;;;;;;;;;;;;;;;;5072723;27;94081;-74
2023/07/30 08:04:08;;;;;;;;;;;;;;;;;;5076748;27;94125;-74
2023/07/30 08:06:33;;;;;;;;;;;;;;;;;;5076744;27;92562;-74
2023/07/30 08:08:59;;;;;;;;;;;;;;;;;;5080912;27;93602;-75
2023/07/30 08:11:24;;;;;;;;;;;;;;;;;;5077567;27;92221;-73
2023/07/30 08:13:49;;;;;;;;;;;;;;;;;;5073544;27;92393;-73
2023/07/30 08:16:14;;;;;;;;;;;;;;;;;;5078493;27;93715;-75
2023/07/30 08:18:39;;;;;;;;;;;;;;;;;;5075279;27;93347;-73
2023/07/30 08:21:05;;;;;;;;;;;;;;;;;;5078019;27;92655;-74
2023/07/30 08:23:30;;;;;;;;;;;;;;;;;;5072999;27;92724;-73
2023/07/30 08:25:55;;;;;;;;;;;;;;;;;;5076021;27;92353;-74
2023/07/30 08:28:20;;;;;;;;;;;;;;;;;;5078214;27;93918;-74
2023/07/30 08:30:46;;;;;;;;;;;;;;;;;;5082412;27;93193;-73
2023/07/30 08:33:11;;;;;;;;;;;;;;;;;;5078322;27;92518;-73
2023/07/30 08:35:36;;;;;;;;;;;;;;;;;;5078527;27;92722;-74
2023/07/30 08:38:01;;;;;;;;;;;;;;;;;;5076338;27;92963;-73
2023/07/30 08:40:26;;;;;;;;;;;;;;;;;;5075080;27;93672;-73
2023/07/30 08:42:52;;;;;;;;;;;;;;;;;;5076365;27;92637;-73
2023/07/30 08:45:18;;;;;;;;;;;;;;;;;;5078026;27;92155;-74
2023/07/30 08:47:44;;;;;;;;;;;;;;;;;;5070676;27;94248;-72
2023/07/30 08:50:09;;;;;;;;;;;;;;;;;;5076717;27;93078;-73
2023/07/30 08:52:35;;;;;;;;;;;;;;;;;;5077870;27;93890;-72
2023/07/30 08:55:01;;;;;;;;;;;;;;;;;;5074998;27;92888;-70
2023/07/30 08:57:28;;;;;;;;;;;;;;;;;;5078532;27;91502;-73
2023/07/30 08:59:59;;;;;;;;;;;;;;;;;;5077504;27;94095;-72
2023/07/30 09:02:30;;;;;;;;;;;;;;;;;;5072524;27;92705;-72
2023/07/30 09:04:56;;;;;;;;;;;;;;;;;;5074156;27;93867;-73
2023/07/30 09:07:24;;;;;;;;;;;;;;;;;;5074113;27;94231;-73
2023/07/30 09:09:49;;;;;;;;;;;;;;;;;;5070976;27;92537;-71
2023/07/30 09:12:15;;;;;;;;;;;;;;;;;;5077448;27;92575;-73
2023/07/30 09:14:40;;;;;;;;;;;;;;;;;;5077587;27;92662;-74
2023/07/30 09:17:05;;;;;;;;;;;;;;;;;;5078712;27;93971;-73
2023/07/30 09:19:34;;;;;;;;;;;;;;;;;;5071375;27;92536;-75
2023/07/30 09:21:59;;;;;;;;;;;;;;;;;;5076864;27;92452;-73
2023/07/30 09:24:24;;;;;;;;;;;;;;;;;;5075169;27;92313;-74
2023/07/30 09:26:50;;;;;;;;;;;;;;;;;;5071130;27;93887;-74
2023/07/30 09:29:15;;;;;;;;;;;;;;;;;;5076637;27;94394;-73
2023/07/30 09:31:46;;;;;;;;;;;;;;;;;;5078634;27;92842;-74
2023/07/30 09:34:14;;;;;;;;;;;;;;;;;;5076331;27;92530;-73
2023/07/30 09:36:39;;;;;;;;;;;;;;;;;;5080660;27;92577;-73
2023/07/30 09:39:13;;;;;;;;;;;;;;;;;;5079420;27;92472;-73
2023/07/30 09:41:41;;;;;;;;;;;;;;;;;;5079180;27;95137;-73
2023/07/30 09:44:06;;;;;;;;;;;;;;;;;;5081010;27;92688;-73
2023/07/30 09:46:31;;;;;;;;;;;;;;;;;;5083570;27;92498;-73
2023/07/30 09:48:57;;;;;;;;;;;;;;;;;;5082195;27;92721;-74
2023/07/30 09:51:23;;;;;;;;;;;;;;;;;;5076948;27;92776;-74
2023/07/30 09:53:49;;;;;;;;;;;;;;;;;;5073856;27;93771;-74
2023/07/30 09:56:14;;;;;;;;;;;;;;;;;;5079324;27;92954;-74
2023/07/30 09:58:42;;;;;;;;;;;;;;;;;;5082107;27;92609;-74
2023/07/30 10:01:07;;;;;;;;;;;;;;;;;;5075349;27;93772;-74
2023/07/30 10:03:34;;;;;;;;;;;;;;;;;;5075864;27;92476;-73
2023/07/30 10:06:02;;;;;;;;;;;;;;;;;;5079615;27;92772;-74
2023/07/30 10:08:29;;;;;;;;;;;;;;;;;;5078371;27;94605;-74
2023/07/30 10:10:54;;;;;;;;;;;;;;;;;;5084278;27;92387;-74
2023/07/30 10:13:20;;;;;;;;;;;;;;;;;;5079417;27;92535;-74
2023/07/30 10:15:46;;;;;;;;;;;;;;;;;;5079187;27;92782;-74
2023/07/30 10:18:11;;;;;;;;;;;;;;;;;;5081276;27;93183;-74
2023/07/30 10:20:37;;;;;;;;;;;;;;;;;;5076297;27;93028;-77
2023/07/30 10:23:04;;;;;;;;;;;;;;;;;;5079829;27;94118;-74
2023/07/30 10:25:41;;;;;;;;;;;;;;;;;;5072608;27;92392;-74
2023/07/30 10:28:06;;;;;;;;;;;;;;;;;;5076320;27;92644;-75
2023/07/30 10:30:32;;;;;;;;;;;;;;;;;;5078184;27;93873;-73
2023/07/30 10:33:02;;;;;;;;;;;;;;;;;;5074020;27;93449;-74
2023/07/30 10:35:38;;;;;;;;;;;;;;;;;;5077860;27;91897;-74
2023/07/30 10:38:27;;;;;;;;;;;;;;;;;;5076716;27;93441;-76
2023/07/30 10:41:06;;;;;;;;;;;;;;;;;;5074507;27;93563;-74
2023/07/30 10:43:35;;;;;;;;;;;;;;;;;;5074621;27;93556;-74
2023/07/30 10:46:01;;;;;;;;;;;;;;;;;;5077650;27;94249;-72
2023/07/30 10:48:30;;;;;;;;;;;;;;;;;;5075333;27;94277;-74
2023/07/30 10:50:55;;;;;;;;;;;;;;;;;;5079502;27;92541;-73
2023/07/30 10:53:21;;;;;;;;;;;;;;;;;;5078482;27;92562;-75
2023/07/30 10:55:46;;;;;;;;;;;;;;;;;;5071961;27;95536;-75
2023/07/30 10:58:11;;;;;;;;;;;;;;;;;;5079515;27;92659;-74
2023/07/30 11:00:37;;;;;;;;;;;;;;;;;;5077936;27;93288;-73
2023/07/30 11:03:02;;;;;;;;;;;;;;;;;;5080350;27;92637;-74
2023/07/30 11:05:28;;;;;;;;;;;;;;;;;;5078157;27;93176;-73
2023/07/30 11:07:53;;;;;;;;;;;;;;;;;;5075786;27;94582;-74
2023/07/30 11:10:18;;;;;;;;;;;;;;;;;;5074679;27;94150;-73
2023/07/30 11:12:43;;;;;;;;;;;;;;;;;;5077276;27;93310;-72
2023/07/30 11:15:09;;;;;;;;;;;;;;;;;;5075873;27;92824;-74
2023/07/30 11:17:34;;;;;;;;;;;;;;;;;;5075556;27;92753;-75
2023/07/30 11:19:59;;;;;;;;;;;;;;;;;;5075428;27;92375;-74
2023/07/30 11:22:35;;;;;;;;;;;;;;;;;;5075027;27;93942;-78
2023/07/30 11:25:08;;;;;;;;;;;;;;;;;;5083858;27;92183;-75
2023/07/30 11:27:44;;;;;;;;;;;;;;;;;;5076885;27;96399;-74
2023/07/30 11:30:09;;;;;;;;;;;;;;;;;;5074796;27;92625;-75
2023/07/30 11:32:35;;;;;;;;;;;;;;;;;;5074402;27;93204;-74
2023/07/30 11:35:00;;;;;;;;;;;;;;;;;;5074420;27;93008;-74
2023/07/30 11:37:25;;;;;;;;;;;;;;;;;;5074068;27;92797;-74
2023/07/30 11:39:52;;;;;;;;;;;;;;;;;;5077067;27;92973;-73
2023/07/30 11:42:17;;;;;;;;;;;;;;;;;;5073724;27;92778;-74
2023/07/30 11:44:42;;;;;;;;;;;;;;;;;;5073929;27;92969;-74
2023/07/30 11:47:09;;;;;;;;;;;;;;;;;;5084398;27;93579;-74
2023/07/30 11:49:34;;;;;;;;;;;;;;;;;;5078490;27;91932;-74
2023/07/30 11:52:09;;;;;;;;;;;;;;;;;;5080250;27;93233;-69
2023/07/30 11:54:35;;;;;;;;;;;;;;;;;;5074911;27;92914;-74
2023/07/30 11:57:00;;;;;;;;;;;;;;;;;;5072387;27;93590;-72
2023/07/30 11:59:26;;;;;;;;;;;;;;;;;;5071288;27;93281;-73
2023/07/30 12:01:51;;;;;;;;;;;;;;;;;;5074595;27;93961;-72
2023/07/30 12:04:17;;;;;;;;;;;;;;;;;;5076928;27;93185;-72
2023/07/30 12:06:44;;;;;;;;;;;;;;;;;;5070320;27;94293;-73
2023/07/30 12:09:10;;;;;;;;;;;;;;;;;;5078193;27;92999;-73
2023/07/30 12:11:43;;;;;;;;;;;;;;;;;;5073870;27;93985;-73
2023/07/30 12:14:08;;;;;;;;;;;;;;;;;;5080039;27;93470;-73
2023/07/30 12:16:34;;;;;;;;;;;;;;;;;;5073232;27;92658;-72
2023/07/30 12:18:59;;;;;;;;;;;;;;;;;;5074243;27;92395;-73
2023/07/30 12:21:24;;;;;;;;;;;;;;;;;;5072320;27;93620;-73
2023/07/30 12:23:49;;;;;;;;;;;;;;;;;;5072446;27;94761;-73
2023/07/30 12:26:14;;;;;;;;;;;;;;;;;;5070104;27;92448;-73
2023/07/30 12:28:40;;;;;;;;;;;;;;;;;;5081181;27;93617;-73
2023/07/30 12:31:05;;;;;;;;;;;;;;;;;;5076515;27;93146;-72
2023/07/30 12:33:30;;;;;;;;;;;;;;;;;;5075683;27;93628;-72
2023/07/30 12:35:55;;;;;;;;;;;;;;;;;;5076735;27;92603;-72
2023/07/30 12:38:21;;;;;;;;;;;;;;;;;;5069738;27;93492;-71
2023/07/30 12:40:46;;;;;;;;;;;;;;;;;;5075645;27;93393;-69
2023/07/30 12:43:11;;;;;;;;;;;;;;;;;;5075533;27;93958;-71
2023/07/30 12:45:37;;;;;;;;;;;;;;;;;;5075881;27;93644;-71
2023/07/30 12:48:03;;;;;;;;;;;;;;;;;;5070001;27;92592;-72
2023/07/30 12:50:28;;;;;;;;;;;;;;;;;;5079572;27;92765;-71
2023/07/30 12:52:53;;;;;;;;;;;;;;;;;;5073890;27;93958;-67
2023/07/30 12:55:18;;;;;;;;;;;;;;;;;;5075245;27;93329;-70
2023/07/30 12:57:44;;;;;;;;;;;;;;;;;;5076794;27;93703;-69
2023/07/30 13:00:09;;;;;;;;;;;;;;;;;;5074839;27;92917;-71
2023/07/30 13:02:35;;;;;;;;;;;;;;;;;;5071726;27;93570;-71
2023/07/30 13:05:01;;;;;;;;;;;;;;;;;;5073400;27;92984;-70
2023/07/30 13:07:26;;;;;;;;;;;;;;;;;;5081154;27;92969;-68
2023/07/30 13:10:07;;;;;;;;;;;;;;;;;;5076848;27;94943;-71
2023/07/30 13:12:32;;;;;;;;;;;;;;;;;;5081247;27;95062;-71
2023/07/30 13:14:58;;;;;;;;;;;;;;;;;;5081689;27;92524;-68
2023/07/30 13:17:23;;;;;;;;;;;;;;;;;;5077217;27;94000;-71
2023/07/30 13:19:48;;;;;;;;;;;;;;;;;;5084344;27;93896;-71
2023/07/30 13:22:14;;;;;;;;;;;;;;;;;;5080238;27;92442;-68
2023/07/30 13:24:39;;;;;;;;;;;;;;;;;;5077847;27;92366;-71
2023/07/30 13:27:04;;;;;;;;;;;;;;;;;;5077171;27;91970;-69
2023/07/30 13:29:30;;;;;;;;;;;;;;;;;;5078369;27;92352;-70
2023/07/30 13:31:56;;;;;;;;;;;;;;;;;;5079477;27;92602;-71
2023/07/30 13:34:21;;;;;;;;;;;;;;;;;;5078608;27;93661;-71
2023/07/30 13:36:46;;;;;;;;;;;;;;;;;;5083261;27;93029;-71
2023/07/30 13:39:11;;;;;;;;;;;;;;;;;;5078769;27;92650;-69
2023/07/30 13:41:36;;;;;;;;;;;;;;;;;;5081720;27;93987;-69
2023/07/30 13:44:02;;;;;;;;;;;;;;;;;;5076969;27;92591;-68
2023/07/30 13:46:27;;;;;;;;;;;;;;;;;;5080011;27;93934;-68
2023/07/30 13:48:52;;;;;;;;;;;;;;;;;;5076673;27;92315;-70
2023/07/30 13:51:18;;;;;;;;;;;;;;;;;;5077298;27;92350;-70
2023/07/30 13:53:43;;;;;;;;;;;;;;;;;;5076352;27;92714;-70
2023/07/30 13:56:08;;;;;;;;;;;;;;;;;;5077527;27;94029;-67
2023/07/30 13:58:33;;;;;;;;;;;;;;;;;;5078398;27;94479;-68
2023/07/30 14:00:59;;;;;;;;;;;;;;;;;;5079620;27;92616;-70
2023/07/30 14:03:24;;;;;;;;;;;;;;;;;;5071771;27;95862;-70
2023/07/30 14:05:49;;;;;;;;;;;;;;;;;;5075905;27;94084;-68
2023/07/30 14:08:14;;;;;;;;;;;;;;;;;;5072820;27;92641;-70
2023/07/30 14:10:39;;;;;;;;;;;;;;;;;;5076635;27;92595;-71
2023/07/30 14:13:05;;;;;;;;;;;;;;;;;;5079427;27;93770;-68
2023/07/30 14:15:30;;;;;;;;;;;;;;;;;;5076502;27;91511;-71
2023/07/30 14:17:56;;;;;;;;;;;;;;;;;;5079447;27;93125;-73
2023/07/30 14:20:21;;;;;;;;;;;;;;;;;;5077523;27;92515;-71
2023/07/30 14:22:48;;;;;;;;;;;;;;;;;;5075661;27;93793;-70
2023/07/30 14:25:13;;;;;;;;;;;;;;;;;;5076100;27;92699;-69
2023/07/30 14:27:39;;;;;;;;;;;;;;;;;;5069616;27;92704;-69
2023/07/30 14:30:04;;;;;;;;;;;;;;;;;;5071147;27;92797;-71
2023/07/30 14:32:29;;;;;;;;;;;;;;;;;;5074082;27;92666;-71
2023/07/30 14:34:55;;;;;;;;;;;;;;;;;;5077194;27;92578;-73
2023/07/30 14:37:20;;;;;;;;;;;;;;;;;;5073938;27;93734;-69
2023/07/30 14:39:45;;;;;;;;;;;;;;;;;;5075648;27;91481;-71
2023/07/30 14:42:10;;;;;;;;;;;;;;;;;;5073248;27;92616;-72
2023/07/30 14:44:36;;;;;;;;;;;;;;;;;;5074894;27;92737;-71
2023/07/30 14:47:03;;;;;;;;;;;;;;;;;;5078315;27;93788;-68
2023/07/30 14:49:28;;;;;;;;;;;;;;;;;;5080996;27;94148;-69
2023/07/30 14:51:54;;;;;;;;;;;;;;;;;;5080351;27;93794;-70
2023/07/30 14:54:20;;;;;;;;;;;;;;;;;;5071340;27;92761;-72
2023/07/30 14:56:45;;;;;;;;;;;;;;;;;;5075045;27;93015;-67
2023/07/30 14:59:10;;;;;;;;;;;;;;;;;;5077344;27;92851;-67
2023/07/30 15:01:36;;;;;;;;;;;;;;;;;;5071463;27;93545;-68
2023/07/30 15:04:01;;;;;;;;;;;;;;;;;;5081531;27;93812;-69
2023/07/30 15:06:29;;;;;;;;;;;;;;;;;;5077790;27;92305;-76
2023/07/30 15:08:55;;;;;;;;;;;;;;;;;;5078054;27;92973;-70
2023/07/30 15:11:20;;;;;;;;;;;;;;;;;;5080333;27;94290;-74
2023/07/30 15:13:45;;;;;;;;;;;;;;;;;;5071001;27;92899;-73
2023/07/30 15:16:10;;;;;;;;;;;;;;;;;;5076650;27;92847;-73
2023/07/30 15:18:35;;;;;;;;;;;;;;;;;;5076987;27;92659;-75
2023/07/30 15:21:00;;;;;;;;;;;;;;;;;;5070295;27;93575;-72
2023/07/30 15:23:26;;;;;;;;;;;;;;;;;;5076075;27;92783;-74
2023/07/30 15:25:52;;;;;;;;;;;;;;;;;;5074474;27;92778;-71
2023/07/30 15:28:18;;;;;;;;;;;;;;;;;;5079146;27;93552;-72
2023/07/30 15:30:43;;;;;;;;;;;;;;;;;;5076369;27;93194;-72
2023/07/30 15:33:08;;;;;;;;;;;;;;;;;;5078586;27;93024;-71
2023/07/30 15:35:34;;;;;;;;;;;;;;;;;;5077743;27;93101;-75
2023/07/30 15:37:59;;;;;;;;;;;;;;;;;;5079562;27;92974;-69
2023/07/30 15:40:25;;;;;;;;;;;;;;;;;;5073655;27;92962;-72
2023/07/30 15:42:50;;;;;;;;;;;;;;;;;;5076464;27;93512;-72
2023/07/30 15:45:17;;;;;;;;;;;;;;;;;;5079421;27;92277;-72
2023/07/30 15:47:42;;;;;;;;;;;;;;;;;;5074063;27;92616;-71
2023/07/30 15:50:07;;;;;;;;;;;;;;;;;;5074651;27;92854;-69
2023/07/30 15:52:33;;;;;;;;;;;;;;;;;;5080774;27;91513;-69
2023/07/30 15:54:58;;;;;;;;;;;;;;;;;;5079967;27;94022;-70
2023/07/30 15:57:23;;;;;;;;;;;;;;;;;;5079619;27;93805;-69
2023/07/30 15:59:50;;;;;;;;;;;;;;;;;;5075822;27;94906;-69
2023/07/30 16:02:15;;;;;;;;;;;;;;;;;;5078003;27;94144;-70
2023/07/30 16:04:41;;;;;;;;;;;;;;;;;;5081081;27;92670;-69
2023/07/30 16:07:06;;;;;;;;;;;;;;;;;;5077230;27;92653;-70
2023/07/30 16:09:32;;;;;;;;;;;;;;;;;;5072026;27;93109;-69
2023/07/30 16:11:57;;;;;;;;;;;;;;;;;;5076737;27;93261;-69
2023/07/30 16:14:23;;;;;;;;;;;;;;;;;;5071446;27;93395;-70
2023/07/30 16:16:49;;;;;;;;;;;;;;;;;;5074775;27;92894;-69
2023/07/30 16:19:14;;;;;;;;;;;;;;;;;;5073706;27;92253;-68
2023/07/30 16:21:41;;;;;;;;;;;;;;;;;;5075304;27;93488;-68
2023/07/30 16:24:07;;;;;;;;;;;;;;;;;;5074219;27;94705;-69
2023/07/30 16:26:32;;;;;;;;;;;;;;;;;;5072072;27;92538;-68
2023/07/30 16:28:58;;;;;;;;;;;;;;;;;;5072441;27;93270;-70
2023/07/30 16:31:23;;;;;;;;;;;;;;;;;;5077433;27;93040;-69
2023/07/30 16:33:48;;;;;;;;;;;;;;;;;;5069691;27;92934;-68
2023/07/30 16:36:14;;;;;;;;;;;;;;;;;;5073906;27;93307;-68